Time;durP1;ratioP1;P1;durP2;ratioP2;P2;SDS_P1;SDS_P2;PMS_P1;PMS_P2;Temp;Humidity;BMP_temperature;BMP_pressure;BME280_temperature;BME280_humidity;BME280_pressure;Samples;Min_cycle;Max_cycle;Signal;HPM_P1;HPM_P2
2023/12/23 00:00:43;;;;;;;;;2.25;1.00;;;;;;;;5038883;28;46319;-73
2023/12/23 00:03:08;;;;;;;;;0.00;0.00;;;;;;;;5032138;28;45336;-73
2023/12/23 00:05:34;;;;;;;;;3.50;2.00;;;;;;;;5038403;28;45309;-73
2023/12/23 00:07:59;;;;;;;;;2.75;2.00;;;;;;;;5034526;28;45321;-73
2023/12/23 00:10:24;;;;;;;;;2.00;2.00;;;;;;;;5032972;28;45410;-73
2023/12/23 00:12:49;;;;;;;;;2.00;2.00;;;;;;;;5033572;28;45615;-74
2023/12/23 00:15:14;;;;;;;;;3.25;2.00;;;;;;;;5035650;28;45211;-73
2023/12/23 00:17:40;;;;;;;;;1.00;1.00;;;;;;;;5037158;28;45372;-73
2023/12/23 00:20:05;;;;;;;;;1.50;1.50;;;;;;;;5034447;28;46521;-73
2023/12/23 00:22:30;;;;;;;;;1.00;1.00;;;;;;;;5036951;28;45329;-73
2023/12/23 00:24:55;;;;;;;;;3.50;2.00;;;;;;;;5036461;28;45446;-73
2023/12/23 00:27:21;;;;;;;;;3.00;1.00;;;;;;;;5037474;28;45339;-73
2023/12/23 00:29:46;;;;;;;;;2.00;1.00;;;;;;;;5029843;28;45255;-73
2023/12/23 00:32:11;;;;;;;;;1.00;1.00;;;;;;;;5038382;28;45343;-72
2023/12/23 00:34:36;;;;;;;;;1.67;1.67;;;;;;;;5030884;28;45229;-73
2023/12/23 00:37:01;;;;;;;;;2.25;2.00;;;;;;;;5038421;28;45410;-73
2023/12/23 00:39:26;;;;;;;;;2.25;1.00;;;;;;;;5031656;28;45477;-73
2023/12/23 00:41:52;;;;;;;;;2.25;1.00;;;;;;;;5038732;28;45302;-73
2023/12/23 00:44:17;;;;;;;;;2.00;0.50;;;;;;;;5030846;28;45292;-73
2023/12/23 00:46:42;;;;;;;;;2.00;1.00;;;;;;;;5038537;28;45279;-73
2023/12/23 00:49:07;;;;;;;;;2.50;1.00;;;;;;;;5046961;28;47048;-73
2023/12/23 00:51:32;;;;;;;;;2.00;1.00;;;;;;;;5053482;28;45250;-73
2023/12/23 00:53:58;;;;;;;;;1.00;1.00;;;;;;;;5031765;28;45417;-73
2023/12/23 00:56:23;;;;;;;;;1.00;1.00;;;;;;;;5038297;28;45208;-73
2023/12/23 00:58:48;;;;;;;;;1.50;1.00;;;;;;;;5031608;28;46197;-73
2023/12/23 01:01:14;;;;;;;;;2.00;1.00;;;;;;;;5038236;28;45311;-73
2023/12/23 01:03:39;;;;;;;;;0.50;0.50;;;;;;;;5032224;28;45497;-73
2023/12/23 01:06:05;;;;;;;;;1.00;1.00;;;;;;;;5038386;28;45442;-73
2023/12/23 01:08:30;;;;;;;;;3.50;1.00;;;;;;;;5032605;28;45766;-73
2023/12/23 01:10:55;;;;;;;;;2.00;1.00;;;;;;;;5050120;28;45303;-73
2023/12/23 01:13:20;;;;;;;;;2.75;0.75;;;;;;;;5034260;28;44837;-72
2023/12/23 01:15:46;;;;;;;;;2.50;1.00;;;;;;;;5039534;28;45200;-73
2023/12/23 01:18:11;;;;;;;;;3.50;1.00;;;;;;;;5037157;28;47341;-73
2023/12/23 01:20:38;;;;;;;;;1.00;0.00;;;;;;;;5040664;28;45156;-73
2023/12/23 01:23:03;;;;;;;;;4.00;1.25;;;;;;;;5038978;28;45449;-72
2023/12/23 01:25:28;;;;;;;;;2.25;1.00;;;;;;;;5040005;28;47434;-72
2023/12/23 01:27:54;;;;;;;;;3.50;2.00;;;;;;;;5039272;28;45451;-73
2023/12/23 01:30:19;;;;;;;;;0.75;0.75;;;;;;;;5049431;28;45765;-73
2023/12/23 01:32:44;;;;;;;;;1.00;1.00;;;;;;;;5039659;28;45164;-73
2023/12/23 01:35:09;;;;;;;;;0.00;0.00;;;;;;;;5041622;28;45429;-73
2023/12/23 01:37:34;;;;;;;;;2.75;0.50;;;;;;;;5040001;28;45587;-73
2023/12/23 01:40:00;;;;;;;;;1.00;1.00;;;;;;;;5036675;28;45326;-73
2023/12/23 01:42:26;;;;;;;;;1.25;1.00;;;;;;;;5039947;28;45321;-73
2023/12/23 01:44:51;;;;;;;;;0.25;0.25;;;;;;;;5052055;28;45458;-73
2023/12/23 01:47:17;;;;;;;;;0.00;0.00;;;;;;;;5040144;28;45608;-73
2023/12/23 01:49:42;;;;;;;;;0.00;0.00;;;;;;;;5035356;28;45303;-73
2023/12/23 01:52:08;;;;;;;;;2.25;1.00;;;;;;;;5056265;28;45299;-73
2023/12/23 01:54:33;;;;;;;;;1.50;0.00;;;;;;;;5033630;28;45211;-73
2023/12/23 01:56:59;;;;;;;;;2.50;0.00;;;;;;;;5056321;28;45531;-73
2023/12/23 01:59:24;;;;;;;;;0.75;0.00;;;;;;;;5037692;28;45426;-73
2023/12/23 02:01:50;;;;;;;;;1.75;0.75;;;;;;;;5040961;28;45196;-73
2023/12/23 02:04:15;;;;;;;;;2.67;2.00;;;;;;;;5035239;28;45282;-72
2023/12/23 02:06:40;;;;;;;;;3.00;0.00;;;;;;;;5038503;28;46431;-72
2023/12/23 02:09:06;;;;;;;;;1.00;1.00;;;;;;;;5037441;28;44827;-72
2023/12/23 02:11:37;;;;;;;;;2.67;0.00;;;;;;;;5039511;28;45270;-72
2023/12/23 02:14:07;;;;;;;;;0.00;0.00;;;;;;;;5037515;28;45568;-72
2023/12/23 02:16:32;;;;;;;;;1.00;0.33;;;;;;;;5040313;28;45588;-72
2023/12/23 02:18:58;;;;;;;;;0.00;0.00;;;;;;;;5033649;28;45457;-75
2023/12/23 02:21:23;;;;;;;;;1.67;1.33;;;;;;;;5039200;28;45265;-74
2023/12/23 02:23:48;;;;;;;;;0.00;0.00;;;;;;;;5035685;28;45424;-71
2023/12/23 02:26:17;;;;;;;;;0.00;0.00;;;;;;;;5038438;28;45488;-73
2023/12/23 02:28:43;;;;;;;;;0.00;0.00;;;;;;;;5034833;28;45509;-73
2023/12/23 02:31:10;;;;;;;;;2.00;1.00;;;;;;;;5036315;28;45227;-72
2023/12/23 02:33:35;;;;;;;;;1.67;0.67;;;;;;;;5036557;28;46355;-72
2023/12/23 02:36:01;;;;;;;;;1.00;0.00;;;;;;;;5040158;28;45245;-72
2023/12/23 02:38:26;;;;;;;;;1.00;0.00;;;;;;;;5034968;28;45537;-71
2023/12/23 02:40:51;;;;;;;;;0.00;0.00;;;;;;;;5055634;28;45255;-71
2023/12/23 02:43:16;;;;;;;;;2.00;0.00;;;;;;;;5037058;28;45216;-72
2023/12/23 02:45:41;;;;;;;;;1.00;1.00;;;;;;;;5035737;28;45159;-72
2023/12/23 02:48:06;;;;;;;;;0.00;0.00;;;;;;;;5035416;28;45288;-72
2023/12/23 02:50:32;;;;;;;;;0.00;0.00;;;;;;;;5053932;28;45386;-72
2023/12/23 02:52:59;;;;;;;;;1.00;0.00;;;;;;;;5035199;28;45927;-72
2023/12/23 02:55:24;;;;;;;;;0.00;0.00;;;;;;;;5037860;28;46336;-72
2023/12/23 02:57:49;;;;;;;;;0.00;0.00;;;;;;;;5037316;28;45295;-72
2023/12/23 03:00:15;;;;;;;;;0.67;0.00;;;;;;;;5036388;28;45268;-74
2023/12/23 03:02:40;;;;;;;;;0.00;0.00;;;;;;;;5038593;28;45352;-73
2023/12/23 03:05:06;;;;;;;;;0.00;0.00;;;;;;;;5035152;28;46504;-74
2023/12/23 03:07:31;;;;;;;;;0.00;0.00;;;;;;;;5037922;28;45383;-74
2023/12/23 03:09:56;;;;;;;;;1.00;0.00;;;;;;;;5036393;28;45386;-74
2023/12/23 03:12:21;;;;;;;;;1.75;1.00;;;;;;;;5039168;28;45284;-74
2023/12/23 03:14:46;;;;;;;;;3.00;0.00;;;;;;;;5033387;28;45592;-74
2023/12/23 03:17:11;;;;;;;;;0.00;0.00;;;;;;;;5039811;28;45312;-74
2023/12/23 03:19:37;;;;;;;;;1.75;0.25;;;;;;;;5050529;28;45317;-74
2023/12/23 03:22:02;;;;;;;;;1.25;0.00;;;;;;;;5039372;28;45225;-74
2023/12/23 03:24:27;;;;;;;;;0.00;0.00;;;;;;;;5037385;28;45410;-74
2023/12/23 03:26:52;;;;;;;;;0.00;0.00;;;;;;;;5039625;28;45238;-74
2023/12/23 03:29:17;;;;;;;;;1.00;1.00;;;;;;;;5028717;28;45514;-74
2023/12/23 03:31:43;;;;;;;;;0.00;0.00;;;;;;;;5039498;28;45505;-74
2023/12/23 03:34:08;;;;;;;;;0.00;0.00;;;;;;;;5031239;28;45461;-74
2023/12/23 03:36:33;;;;;;;;;0.00;0.00;;;;;;;;5038599;28;45370;-74
2023/12/23 03:38:58;;;;;;;;;0.00;0.00;;;;;;;;5034281;28;45240;-74
2023/12/23 03:41:24;;;;;;;;;2.00;0.00;;;;;;;;5027351;28;45805;-73
2023/12/23 03:43:49;;;;;;;;;0.50;0.50;;;;;;;;5037506;28;47929;-74
2023/12/23 03:46:16;;;;;;;;;0.00;0.00;;;;;;;;5039202;28;45288;-73
2023/12/23 03:48:42;;;;;;;;;1.00;1.00;;;;;;;;5033319;28;45429;-74
2023/12/23 03:51:07;;;;;;;;;0.00;0.00;;;;;;;;5038823;28;45589;-73
2023/12/23 03:53:32;;;;;;;;;1.33;0.00;;;;;;;;5032588;28;45514;-74
2023/12/23 03:55:57;;;;;;;;;0.00;0.00;;;;;;;;5039005;28;45289;-74
2023/12/23 03:58:22;;;;;;;;;1.33;0.00;;;;;;;;5033119;28;45193;-74
2023/12/23 04:00:47;;;;;;;;;0.00;0.00;;;;;;;;5038965;28;45245;-74
2023/12/23 04:03:13;;;;;;;;;0.00;0.00;;;;;;;;5033570;28;46335;-73
2023/12/23 04:05:38;;;;;;;;;0.00;0.00;;;;;;;;5053485;28;45503;-73
2023/12/23 04:08:04;;;;;;;;;0.00;0.00;;;;;;;;5035098;28;45627;-72
2023/12/23 04:10:29;;;;;;;;;0.67;0.67;;;;;;;;5054297;28;45276;-73
2023/12/23 04:12:54;;;;;;;;;1.00;0.00;;;;;;;;5035738;28;45757;-73
2023/12/23 04:15:19;;;;;;;;;1.00;0.00;;;;;;;;5038266;28;45328;-73
2023/12/23 04:17:44;;;;;;;;;0.00;0.00;;;;;;;;5037258;28;45390;-73
2023/12/23 04:20:10;;;;;;;;;0.00;0.00;;;;;;;;5037704;28;45514;-73
2023/12/23 04:22:35;;;;;;;;;0.00;0.00;;;;;;;;5036735;28;45639;-73
2023/12/23 04:25:01;;;;;;;;;1.00;0.00;;;;;;;;5038295;28;45311;-73
2023/12/23 04:27:26;;;;;;;;;0.00;0.00;;;;;;;;5037929;28;45213;-73
2023/12/23 04:29:51;;;;;;;;;0.00;0.00;;;;;;;;5035961;28;46001;-73
2023/12/23 04:32:16;;;;;;;;;0.00;0.00;;;;;;;;5038275;28;45523;-73
2023/12/23 04:34:42;;;;;;;;;0.00;0.00;;;;;;;;5031262;28;45540;-75
2023/12/23 04:37:07;;;;;;;;;0.00;0.00;;;;;;;;5037428;28;45228;-75
2023/12/23 04:39:32;;;;;;;;;0.00;0.00;;;;;;;;5033345;28;45281;-73
2023/12/23 04:41:57;;;;;;;;;0.00;0.00;;;;;;;;5038500;28;48042;-74
2023/12/23 04:44:22;;;;;;;;;0.00;0.00;;;;;;;;5030798;28;45332;-76
2023/12/23 04:46:48;;;;;;;;;0.00;0.00;;;;;;;;5054297;28;45235;-73
2023/12/23 04:49:13;;;;;;;;;0.00;0.00;;;;;;;;5034705;28;45535;-74
2023/12/23 04:51:38;;;;;;;;;0.00;0.00;;;;;;;;5039560;28;47890;-74
2023/12/23 04:54:03;;;;;;;;;0.33;0.33;;;;;;;;5053347;28;45224;-73
2023/12/23 04:56:29;;;;;;;;;1.67;0.00;;;;;;;;5041890;28;45426;-74
2023/12/23 04:58:56;;;;;;;;;0.00;0.00;;;;;;;;5036328;28;45400;-74
2023/12/23 05:01:21;;;;;;;;;1.00;0.00;;;;;;;;5041604;28;45550;-74
2023/12/23 05:03:46;;;;;;;;;1.00;0.00;;;;;;;;5035637;28;45287;-74
2023/12/23 05:06:11;;;;;;;;;1.50;0.50;;;;;;;;5041881;28;45278;-73
2023/12/23 05:08:37;;;;;;;;;0.00;0.00;;;;;;;;5051492;28;45568;-74
2023/12/23 05:11:02;;;;;;;;;0.00;0.00;;;;;;;;5038079;28;45931;-74
2023/12/23 05:13:27;;;;;;;;;0.00;0.00;;;;;;;;5038387;28;45181;-75
2023/12/23 05:15:53;;;;;;;;;1.00;0.00;;;;;;;;5052221;28;45220;-74
2023/12/23 05:18:18;;;;;;;;;0.00;0.00;;;;;;;;5034653;28;47128;-75
2023/12/23 05:20:43;;;;;;;;;0.00;0.00;;;;;;;;5042067;28;45477;-75
2023/12/23 05:23:08;;;;;;;;;1.00;1.00;;;;;;;;5039026;28;45459;-73
2023/12/23 05:25:33;;;;;;;;;0.00;0.00;;;;;;;;5041736;28;45240;-74
2023/12/23 05:27:58;;;;;;;;;2.00;0.00;;;;;;;;5039557;28;45618;-75
2023/12/23 05:30:24;;;;;;;;;0.00;0.00;;;;;;;;5041259;28;45366;-75
2023/12/23 05:32:49;;;;;;;;;1.00;0.00;;;;;;;;5039319;28;45438;-75
2023/12/23 05:35:14;;;;;;;;;1.00;0.00;;;;;;;;5041119;28;45441;-75
2023/12/23 05:37:39;;;;;;;;;0.00;0.00;;;;;;;;5037877;28;45319;-74
2023/12/23 05:40:05;;;;;;;;;0.00;0.00;;;;;;;;5036080;28;45389;-74
2023/12/23 05:42:30;;;;;;;;;0.00;0.00;;;;;;;;5039717;28;45248;-74
2023/12/23 05:44:55;;;;;;;;;0.67;0.00;;;;;;;;5052728;28;45493;-73
2023/12/23 05:47:21;;;;;;;;;0.00;0.00;;;;;;;;5038600;28;45780;-74
2023/12/23 05:49:46;;;;;;;;;0.33;0.00;;;;;;;;5036343;28;45382;-74
2023/12/23 05:52:11;;;;;;;;;1.00;0.00;;;;;;;;5056009;28;45441;-74
2023/12/23 05:54:36;;;;;;;;;0.33;0.00;;;;;;;;5034874;28;45345;-74
2023/12/23 05:57:01;;;;;;;;;4.00;0.00;;;;;;;;5039167;28;45902;-74
2023/12/23 05:59:27;;;;;;;;;0.00;0.00;;;;;;;;5034210;28;45450;-74
2023/12/23 06:01:52;;;;;;;;;0.00;0.00;;;;;;;;5039568;28;45335;-74
2023/12/23 06:04:17;;;;;;;;;0.67;0.00;;;;;;;;5034455;28;45352;-74
2023/12/23 06:06:42;;;;;;;;;1.00;0.00;;;;;;;;5040450;28;45252;-75
2023/12/23 06:09:08;;;;;;;;;0.00;0.00;;;;;;;;5033921;28;46751;-74
2023/12/23 06:11:33;;;;;;;;;1.00;0.00;;;;;;;;5038179;28;45157;-74
2023/12/23 06:13:59;;;;;;;;;1.00;0.50;;;;;;;;5037670;28;45379;-74
2023/12/23 06:16:24;;;;;;;;;0.00;0.00;;;;;;;;5039052;28;45204;-75
2023/12/23 06:18:49;;;;;;;;;0.00;0.00;;;;;;;;5038885;28;45549;-75
2023/12/23 06:21:14;;;;;;;;;1.00;0.00;;;;;;;;5039988;28;45211;-75
2023/12/23 06:23:39;;;;;;;;;0.00;0.00;;;;;;;;5035966;28;45403;-74
2023/12/23 06:26:04;;;;;;;;;0.00;0.00;;;;;;;;5034835;28;45454;-74
2023/12/23 06:28:30;;;;;;;;;0.00;0.00;;;;;;;;5034961;28;46829;-74
2023/12/23 06:30:55;;;;;;;;;2.33;0.00;;;;;;;;5040351;28;45366;-74
2023/12/23 06:33:20;;;;;;;;;0.00;0.00;;;;;;;;5039279;28;45514;-73
2023/12/23 06:35:45;;;;;;;;;1.00;0.00;;;;;;;;5022931;28;45372;-74
2023/12/23 06:38:12;;;;;;;;;5.67;0.00;;;;;;;;5035881;28;45418;-74
2023/12/23 06:40:37;;;;;;;;;1.00;0.00;;;;;;;;5039225;28;45387;-74
2023/12/23 06:43:03;;;;;;;;;0.00;0.00;;;;;;;;5036587;28;45564;-74
2023/12/23 06:45:28;;;;;;;;;0.00;0.00;;;;;;;;5053290;28;45602;-74
2023/12/23 06:47:53;;;;;;;;;0.00;0.00;;;;;;;;5037491;28;45372;-73
2023/12/23 06:50:18;;;;;;;;;1.00;0.00;;;;;;;;5037760;28;46650;-73
2023/12/23 06:52:44;;;;;;;;;0.00;0.00;;;;;;;;5038210;28;45331;-73
2023/12/23 06:55:09;;;;;;;;;0.00;0.00;;;;;;;;5037850;28;45275;-73
2023/12/23 06:57:34;;;;;;;;;1.33;0.33;;;;;;;;5038076;28;45474;-73
2023/12/23 06:59:59;;;;;;;;;2.33;0.00;;;;;;;;5042968;28;45423;-72
2023/12/23 07:02:25;;;;;;;;;0.00;0.00;;;;;;;;5039296;28;45257;-73
2023/12/23 07:04:50;;;;;;;;;0.00;0.00;;;;;;;;5036717;28;45276;-73
2023/12/23 07:07:16;;;;;;;;;0.00;0.00;;;;;;;;5039771;28;45204;-73
2023/12/23 07:09:41;;;;;;;;;0.00;0.00;;;;;;;;5035010;28;45307;-73
2023/12/23 07:12:07;;;;;;;;;0.00;0.00;;;;;;;;5038808;28;45335;-73
2023/12/23 07:14:32;;;;;;;;;0.00;0.00;;;;;;;;5024802;28;45374;-73
2023/12/23 07:16:57;;;;;;;;;0.00;0.00;;;;;;;;5037853;28;45169;-73
2023/12/23 07:19:23;;;;;;;;;0.00;0.00;;;;;;;;5035907;28;45482;-73
2023/12/23 07:21:52;;;;;;;;;0.00;0.00;;;;;;;;5031470;28;44781;-73
2023/12/23 07:24:18;;;;;;;;;2.67;0.00;;;;;;;;5034008;28;45566;-72
2023/12/23 07:26:43;;;;;;;;;0.00;0.00;;;;;;;;5038791;28;45296;-74
2023/12/23 07:29:08;;;;;;;;;2.33;0.00;;;;;;;;5035814;28;45254;-73
2023/12/23 07:31:33;;;;;;;;;0.00;0.00;;;;;;;;5037612;28;45454;-73
2023/12/23 07:33:59;;;;;;;;;1.33;0.00;;;;;;;;5037171;28;45398;-73
2023/12/23 07:36:24;;;;;;;;;1.67;0.00;;;;;;;;5038491;28;45479;-72
2023/12/23 07:38:50;;;;;;;;;0.33;0.00;;;;;;;;5034891;28;45379;-73
2023/12/23 07:41:15;;;;;;;;;0.00;0.00;;;;;;;;5038840;28;45341;-73
2023/12/23 07:43:40;;;;;;;;;1.00;1.00;;;;;;;;5032898;28;45288;-73
2023/12/23 07:46:05;;;;;;;;;0.00;0.00;;;;;;;;5034097;28;45367;-73
2023/12/23 07:48:31;;;;;;;;;1.00;0.00;;;;;;;;5028137;28;45344;-73
2023/12/23 07:50:56;;;;;;;;;1.67;0.00;;;;;;;;5052852;28;45343;-73
2023/12/23 07:53:21;;;;;;;;;0.00;0.00;;;;;;;;5032528;28;45495;-72
2023/12/23 07:55:46;;;;;;;;;0.00;0.00;;;;;;;;5038387;28;45414;-73
2023/12/23 07:58:11;;;;;;;;;0.00;0.00;;;;;;;;5032496;28;45489;-73
2023/12/23 08:00:37;;;;;;;;;0.00;0.00;;;;;;;;5037329;28;45295;-73
2023/12/23 08:03:02;;;;;;;;;0.00;0.00;;;;;;;;5034971;28;45439;-74
2023/12/23 08:05:31;;;;;;;;;1.33;0.00;;;;;;;;5036658;28;45413;-73
2023/12/23 08:07:56;;;;;;;;;1.00;0.00;;;;;;;;5035031;28;45391;-73
2023/12/23 08:10:21;;;;;;;;;2.00;0.00;;;;;;;;5038633;28;45415;-73
2023/12/23 08:12:47;;;;;;;;;0.67;0.00;;;;;;;;5034794;28;45458;-73
2023/12/23 08:15:12;;;;;;;;;0.00;0.00;;;;;;;;5035802;28;47559;-73
2023/12/23 08:17:37;;;;;;;;;0.00;0.00;;;;;;;;5036983;28;45465;-72
2023/12/23 08:20:02;;;;;;;;;0.00;0.00;;;;;;;;5032376;28;45206;-72
2023/12/23 08:22:27;;;;;;;;;0.67;0.67;;;;;;;;5037005;28;45396;-73
2023/12/23 08:24:53;;;;;;;;;0.00;0.00;;;;;;;;5031563;28;45431;-73
2023/12/23 08:27:18;;;;;;;;;3.00;0.00;;;;;;;;5038310;28;45239;-73
2023/12/23 08:29:43;;;;;;;;;2.67;1.67;;;;;;;;5030446;28;45292;-73
2023/12/23 08:32:08;;;;;;;;;0.33;0.00;;;;;;;;5038129;28;45342;-72
2023/12/23 08:34:33;;;;;;;;;0.00;0.00;;;;;;;;5032326;28;45506;-73
2023/12/23 08:36:59;;;;;;;;;0.00;0.00;;;;;;;;5038177;28;45347;-73
2023/12/23 08:39:24;;;;;;;;;2.00;0.00;;;;;;;;5032937;28;45264;-73
2023/12/23 08:41:49;;;;;;;;;0.00;0.00;;;;;;;;5038813;28;46486;-73
2023/12/23 08:44:15;;;;;;;;;2.67;0.33;;;;;;;;5032141;28;45394;-73
2023/12/23 08:46:41;;;;;;;;;2.00;0.00;;;;;;;;5038920;28;45380;-73
2023/12/23 08:49:06;;;;;;;;;2.00;0.33;;;;;;;;5032267;28;45354;-73
2023/12/23 08:51:34;;;;;;;;;3.00;1.00;;;;;;;;5038742;28;45062;-73
2023/12/23 08:53:59;;;;;;;;;0.00;0.00;;;;;;;;5031281;28;47231;-72
2023/12/23 08:56:24;;;;;;;;;0.00;0.00;;;;;;;;5038469;28;45351;-71
2023/12/23 08:58:50;;;;;;;;;2.00;0.00;;;;;;;;5033923;28;45279;-72
2023/12/23 09:01:15;;;;;;;;;0.33;0.00;;;;;;;;5035784;28;45578;-72
2023/12/23 09:03:40;;;;;;;;;2.67;1.00;;;;;;;;5035862;28;45356;-72
2023/12/23 09:06:06;;;;;;;;;4.67;1.00;;;;;;;;5037245;28;45674;-72
2023/12/23 09:08:33;;;;;;;;;2.33;0.00;;;;;;;;5034742;28;45221;-72
2023/12/23 09:10:58;;;;;;;;;3.00;1.00;;;;;;;;5037073;28;46598;-72
2023/12/23 09:13:23;;;;;;;;;0.33;0.00;;;;;;;;5036258;28;45666;-72
2023/12/23 09:15:49;;;;;;;;;1.33;1.00;;;;;;;;5037142;28;45632;-72
2023/12/23 09:18:14;;;;;;;;;1.00;1.00;;;;;;;;5036443;28;45554;-72
2023/12/23 09:20:39;;;;;;;;;1.00;1.00;;;;;;;;5037052;28;47424;-72
2023/12/23 09:23:04;;;;;;;;;1.67;1.00;;;;;;;;5036615;28;45812;-73
2023/12/23 09:25:30;;;;;;;;;1.33;0.00;;;;;;;;5032084;28;45295;-72
2023/12/23 09:27:55;;;;;;;;;1.33;0.00;;;;;;;;5035868;28;45454;-72
2023/12/23 09:30:20;;;;;;;;;1.67;0.00;;;;;;;;5033790;28;45405;-72
2023/12/23 09:32:45;;;;;;;;;2.33;1.00;;;;;;;;5033219;28;47106;-72
2023/12/23 09:35:10;;;;;;;;;1.00;1.00;;;;;;;;5034278;28;45351;-73
2023/12/23 09:37:36;;;;;;;;;3.00;1.00;;;;;;;;5038777;28;45326;-72
2023/12/23 09:40:01;;;;;;;;;2.00;0.67;;;;;;;;5039565;28;45345;-72
2023/12/23 09:42:30;;;;;;;;;0.00;0.00;;;;;;;;5038752;28;47157;-73
2023/12/23 09:44:55;;;;;;;;;0.67;0.67;;;;;;;;5053328;28;45256;-72
2023/12/23 09:47:20;;;;;;;;;1.00;1.00;;;;;;;;5040520;28;45203;-73
2023/12/23 09:49:46;;;;;;;;;0.00;0.00;;;;;;;;5039378;28;46759;-72
2023/12/23 09:52:11;;;;;;;;;2.00;0.00;;;;;;;;5039076;28;46670;-73
2023/12/23 09:54:38;;;;;;;;;0.00;0.00;;;;;;;;5036011;28;45470;-73
2023/12/23 09:57:04;;;;;;;;;0.00;0.00;;;;;;;;5040771;28;45418;-72
2023/12/23 09:59:30;;;;;;;;;1.67;0.00;;;;;;;;5036312;28;45279;-72
2023/12/23 10:01:55;;;;;;;;;3.33;0.00;;;;;;;;5039227;28;48159;-72
2023/12/23 10:04:21;;;;;;;;;0.00;0.00;;;;;;;;5034744;28;45795;-72
2023/12/23 10:06:46;;;;;;;;;0.67;0.00;;;;;;;;5040075;28;45450;-72
2023/12/23 10:09:11;;;;;;;;;2.00;0.00;;;;;;;;5037121;28;45585;-74
2023/12/23 10:11:36;;;;;;;;;1.00;1.00;;;;;;;;5039190;28;46130;-72
2023/12/23 10:14:01;;;;;;;;;2.00;2.00;;;;;;;;5038662;28;45333;-72
2023/12/23 10:16:27;;;;;;;;;0.67;0.67;;;;;;;;5039088;28;45390;-72
2023/12/23 10:18:52;;;;;;;;;2.00;1.00;;;;;;;;5033068;28;46423;-72
2023/12/23 10:21:18;;;;;;;;;2.00;2.00;;;;;;;;5035775;28;45381;-72
2023/12/23 10:23:44;;;;;;;;;2.00;1.00;;;;;;;;5037479;28;45524;-73
2023/12/23 10:26:10;;;;;;;;;2.00;0.33;;;;;;;;5039963;28;45303;-73
2023/12/23 10:28:36;;;;;;;;;0.00;0.00;;;;;;;;5037006;28;45333;-73
2023/12/23 10:31:01;;;;;;;;;1.00;1.00;;;;;;;;5037718;28;47856;-72
2023/12/23 10:33:29;;;;;;;;;1.00;1.00;;;;;;;;5034065;28;45361;-72
2023/12/23 10:35:56;;;;;;;;;0.67;0.67;;;;;;;;5035028;28;45563;-73
2023/12/23 10:38:22;;;;;;;;;2.00;1.00;;;;;;;;5037101;28;45466;-73
2023/12/23 10:40:56;;;;;;;;;0.00;0.00;;;;;;;;5034750;28;45770;-73
2023/12/23 10:43:22;;;;;;;;;0.33;0.33;;;;;;;;5035783;28;45431;-72
2023/12/23 10:45:48;;;;;;;;;1.00;1.00;;;;;;;;5035975;28;45415;-72
2023/12/23 10:48:15;;;;;;;;;1.00;0.00;;;;;;;;5037457;28;45370;-72
2023/12/23 10:50:41;;;;;;;;;0.67;0.67;;;;;;;;5037856;28;46568;-72
2023/12/23 10:53:07;;;;;;;;;0.33;0.33;;;;;;;;5035353;28;45432;-72
2023/12/23 10:55:33;;;;;;;;;0.00;0.00;;;;;;;;5038542;28;45470;-72
2023/12/23 10:57:59;;;;;;;;;1.00;1.00;;;;;;;;5036616;28;45415;-72
2023/12/23 11:00:24;;;;;;;;;1.00;0.00;;;;;;;;5038825;28;45419;-72
2023/12/23 11:02:55;;;;;;;;;1.00;1.00;;;;;;;;5037225;28;45413;-71
2023/12/23 11:05:22;;;;;;;;;0.00;0.00;;;;;;;;5038165;28;45222;-72
2023/12/23 11:07:49;;;;;;;;;1.00;0.00;;;;;;;;5036286;28;46774;-73
2023/12/23 11:10:14;;;;;;;;;3.33;0.67;;;;;;;;5036197;28;45754;-72
2023/12/23 11:12:42;;;;;;;;;1.00;1.00;;;;;;;;5029986;28;45323;-72
2023/12/23 11:15:07;;;;;;;;;3.33;0.33;;;;;;;;5039679;28;45382;-72
2023/12/23 11:17:34;;;;;;;;;2.00;1.67;;;;;;;;5037516;28;45489;-72
2023/12/23 11:20:01;;;;;;;;;2.00;0.00;;;;;;;;5034610;28;45768;-72
2023/12/23 11:22:27;;;;;;;;;2.00;1.00;;;;;;;;5037237;28;45355;-71
2023/12/23 11:24:52;;;;;;;;;1.00;1.00;;;;;;;;5038180;28;44722;-71
2023/12/23 11:27:37;;;;;;;;;1.00;1.00;;;;;;;;5039582;28;45329;-72
2023/12/23 11:30:03;;;;;;;;;0.33;0.00;;;;;;;;5036371;28;45409;-72
2023/12/23 11:32:37;;;;;;;;;1.00;1.00;;;;;;;;5036705;28;45338;-72
2023/12/23 11:35:05;;;;;;;;;0.00;0.00;;;;;;;;5033210;28;45183;-72
2023/12/23 11:37:49;;;;;;;;;1.00;1.00;;;;;;;;5037610;28;45347;-71
2023/12/23 11:40:15;;;;;;;;;1.33;1.00;;;;;;;;5053006;28;46658;-71
2023/12/23 11:42:41;;;;;;;;;1.00;0.00;;;;;;;;5037469;28;45310;-72
2023/12/23 11:45:07;;;;;;;;;4.00;1.00;;;;;;;;5035130;28;45422;-72
2023/12/23 11:47:32;;;;;;;;;2.00;0.00;;;;;;;;5030750;28;45376;-72
2023/12/23 11:49:57;;;;;;;;;0.00;0.00;;;;;;;;5034275;28;45328;-72
2023/12/23 11:52:23;;;;;;;;;0.67;0.00;;;;;;;;5037144;28;45464;-73
2023/12/23 11:54:48;;;;;;;;;1.00;0.00;;;;;;;;5034078;28;45557;-73
2023/12/23 11:57:14;;;;;;;;;1.00;1.00;;;;;;;;5038946;28;45419;-72
2023/12/23 11:59:40;;;;;;;;;1.00;1.00;;;;;;;;5033811;28;45174;-72
2023/12/23 12:02:05;;;;;;;;;1.00;1.00;;;;;;;;5038907;28;45403;-73
2023/12/23 12:04:30;;;;;;;;;0.67;0.67;;;;;;;;5033109;28;45315;-73
2023/12/23 12:06:56;;;;;;;;;1.00;1.00;;;;;;;;5038574;28;45501;-72
2023/12/23 12:09:21;;;;;;;;;0.00;0.00;;;;;;;;5036810;28;46279;-73
2023/12/23 12:11:46;;;;;;;;;0.00;0.00;;;;;;;;5037525;28;45252;-72
2023/12/23 12:14:11;;;;;;;;;0.00;0.00;;;;;;;;5032627;28;45471;-72
2023/12/23 12:16:37;;;;;;;;;2.00;0.00;;;;;;;;5037586;28;45329;-72
2023/12/23 12:19:02;;;;;;;;;0.00;0.00;;;;;;;;5030838;28;45649;-73
2023/12/23 12:21:28;;;;;;;;;1.00;0.00;;;;;;;;5037444;28;45357;-73
2023/12/23 12:23:57;;;;;;;;;0.00;0.00;;;;;;;;5033036;28;45424;-74
2023/12/23 12:26:23;;;;;;;;;2.00;0.00;;;;;;;;5035457;28;45512;-76
2023/12/23 12:28:48;;;;;;;;;2.00;0.33;;;;;;;;5034207;28;45295;-76
2023/12/23 12:31:14;;;;;;;;;1.00;0.00;;;;;;;;5035141;28;45357;-77
2023/12/23 12:33:39;;;;;;;;;1.00;0.00;;;;;;;;5033202;28;45359;-75
2023/12/23 12:36:07;;;;;;;;;0.00;0.00;;;;;;;;5038531;28;45291;-75
2023/12/23 12:38:32;;;;;;;;;0.00;0.00;;;;;;;;5033372;28;45546;-75
2023/12/23 12:40:58;;;;;;;;;2.67;1.00;;;;;;;;5036811;28;45723;-76
2023/12/23 12:43:28;;;;;;;;;0.00;0.00;;;;;;;;5035203;28;45370;-76
2023/12/23 12:45:53;;;;;;;;;0.00;0.00;;;;;;;;5036512;28;45502;-75
2023/12/23 12:48:20;;;;;;;;;1.00;0.00;;;;;;;;5036171;28;45544;-76
2023/12/23 12:50:46;;;;;;;;;0.00;0.00;;;;;;;;5037375;28;45290;-76
2023/12/23 12:53:14;;;;;;;;;0.00;0.00;;;;;;;;5036505;28;45383;-76
2023/12/23 12:55:39;;;;;;;;;0.00;0.00;;;;;;;;5035029;28;45456;-76
2023/12/23 12:58:04;;;;;;;;;0.00;0.00;;;;;;;;5034423;28;46430;-76
2023/12/23 13:00:30;;;;;;;;;0.00;0.00;;;;;;;;5037522;28;45362;-76
2023/12/23 13:02:55;;;;;;;;;1.33;0.00;;;;;;;;5034860;28;45335;-76
2023/12/23 13:05:21;;;;;;;;;0.00;0.00;;;;;;;;5031231;28;45355;-74
2023/12/23 13:07:46;;;;;;;;;0.00;0.00;;;;;;;;5036447;28;45394;-74
2023/12/23 13:10:12;;;;;;;;;0.00;0.00;;;;;;;;5038761;28;45449;-74
2023/12/23 13:12:38;;;;;;;;;1.00;0.00;;;;;;;;5040865;28;45328;-74
2023/12/23 13:15:03;;;;;;;;;0.00;0.00;;;;;;;;5039342;28;45476;-75
2023/12/23 13:17:29;;;;;;;;;0.00;0.00;;;;;;;;5021509;28;47993;-79
2023/12/23 13:19:54;;;;;;;;;2.00;0.00;;;;;;;;5052051;28;45256;-78
2023/12/23 13:22:19;;;;;;;;;0.00;0.00;;;;;;;;5042278;28;45371;-78
2023/12/23 13:24:45;;;;;;;;;2.00;0.00;;;;;;;;5037824;28;45554;-78
2023/12/23 13:27:10;;;;;;;;;0.00;0.00;;;;;;;;5041145;28;45511;-75
2023/12/23 13:29:35;;;;;;;;;0.00;0.00;;;;;;;;5039767;28;45286;-76
2023/12/23 13:32:01;;;;;;;;;0.00;0.00;;;;;;;;5040544;28;45304;-75
2023/12/23 13:34:26;;;;;;;;;0.00;0.00;;;;;;;;5038196;28;45348;-75
2023/12/23 13:36:51;;;;;;;;;0.00;0.00;;;;;;;;5038806;28;46730;-76
2023/12/23 13:39:16;;;;;;;;;2.00;1.00;;;;;;;;5033851;28;45414;-76
2023/12/23 13:41:41;;;;;;;;;9.67;6.00;;;;;;;;5041949;28;45197;-76
2023/12/23 13:44:07;;;;;;;;;8.00;8.00;;;;;;;;5034604;28;45793;-76
2023/12/23 13:46:32;;;;;;;;;4.00;3.33;;;;;;;;5041306;28;46401;-76
2023/12/23 13:48:57;;;;;;;;;3.33;1.00;;;;;;;;5034698;28;45399;-75
2023/12/23 13:51:23;;;;;;;;;0.33;0.33;;;;;;;;5039818;28;45259;-76
2023/12/23 13:53:48;;;;;;;;;1.33;1.00;;;;;;;;5034336;28;45355;-76
2023/12/23 13:56:13;;;;;;;;;1.00;1.00;;;;;;;;5040996;28;46462;-76
2023/12/23 13:58:38;;;;;;;;;0.00;0.00;;;;;;;;5038234;28;45439;-75
2023/12/23 14:01:04;;;;;;;;;0.00;0.00;;;;;;;;5041227;28;45244;-75
2023/12/23 14:03:29;;;;;;;;;1.00;1.00;;;;;;;;5037403;28;45375;-75
2023/12/23 14:05:57;;;;;;;;;1.00;1.00;;;;;;;;5041103;28;45354;-76
2023/12/23 14:08:22;;;;;;;;;0.00;0.00;;;;;;;;5036741;28;45740;-75
2023/12/23 14:10:47;;;;;;;;;0.33;0.00;;;;;;;;5040646;28;45362;-75
2023/12/23 14:13:12;;;;;;;;;3.00;3.00;;;;;;;;5038016;28;45538;-76
2023/12/23 14:15:39;;;;;;;;;1.67;1.00;;;;;;;;5041424;28;45582;-78
2023/12/23 14:18:04;;;;;;;;;1.00;1.00;;;;;;;;5035650;28;45406;-74
2023/12/23 14:20:29;;;;;;;;;0.00;0.00;;;;;;;;5034735;28;45391;-75
2023/12/23 14:22:55;;;;;;;;;2.00;0.67;;;;;;;;5036855;28;45467;-75
2023/12/23 14:25:20;;;;;;;;;0.00;0.00;;;;;;;;5037462;28;47134;-75
2023/12/23 14:27:46;;;;;;;;;0.33;0.33;;;;;;;;5039070;28;45276;-76
2023/12/23 14:30:11;;;;;;;;;1.00;0.00;;;;;;;;5033395;28;45280;-75
2023/12/23 14:32:36;;;;;;;;;1.67;0.33;;;;;;;;5038547;28;45348;-75